createdAt,value
2018-03-14T00:00:19.223Z,35.10
2018-03-14T00:02:45.308Z,35.17
2018-03-14T00:05:12.124Z,35.40
2018-03-14T00:07:38.211Z,34.63
2018-03-14T00:10:04.296Z,35.30
2018-03-14T00:12:30.393Z,34.57
2018-03-14T00:14:56.471Z,35.27
2018-03-14T00:17:22.540Z,34.60
2018-03-14T00:19:49.356Z,35.93
2018-03-14T00:22:30.560Z,36.20
2018-03-14T00:24:56.628Z,35.93
2018-03-14T00:27:23.443Z,36.07
2018-03-14T00:29:49.507Z,35.87
2018-03-14T00:32:15.649Z,36.00
2018-03-14T00:34:41.719Z,36.87
2018-03-14T00:37:07.799Z,36.40
2018-03-14T00:39:33.880Z,35.37
2018-03-14T00:42:00.692Z,35.03
2018-03-14T00:44:26.759Z,34.93
2018-03-14T00:46:53.587Z,35.03
2018-03-14T00:49:19.658Z,35.13
2018-03-14T00:51:46.488Z,35.53
2018-03-14T00:54:12.551Z,34.73
2018-03-14T00:56:39.360Z,35.43
2018-03-14T00:59:05.444Z,34.63
2018-03-14T01:01:32.278Z,35.50
2018-03-14T01:03:58.360Z,34.93
2018-03-14T01:06:24.443Z,34.83
2018-03-14T01:08:50.535Z,35.70
2018-03-14T01:13:53.065Z,34.60
2018-03-14T01:16:19.157Z,34.97
2018-03-14T01:18:45.232Z,34.40
2018-03-14T01:21:11.389Z,34.40
2018-03-14T01:23:37.400Z,34.27
2018-03-14T01:26:03.488Z,34.73
2018-03-14T01:28:29.562Z,34.07
2018-03-14T01:30:56.396Z,33.57
2018-03-14T01:33:22.472Z,34.13
2018-03-14T01:35:48.572Z,34.50
2018-03-14T01:38:14.669Z,35.50
2018-03-14T01:40:40.846Z,34.67
2018-03-14T01:43:06.908Z,34.80
2018-03-14T01:45:33.727Z,34.10
2018-03-14T01:47:59.820Z,34.07
2018-03-14T01:50:25.887Z,34.57
2018-03-14T01:55:47.788Z,34.73
2018-03-14T01:58:15.837Z,34.67
2018-03-14T02:00:43.880Z,34.47
2018-03-14T02:03:12.700Z,34.90
2018-03-14T02:05:40.753Z,34.60
2018-03-14T02:08:08.796Z,35.37
2018-03-14T02:10:36.832Z,33.80
2018-03-14T02:13:05.663Z,33.63
2018-03-14T02:15:33.704Z,33.90
2018-03-14T02:18:02.510Z,33.20
2018-03-14T02:20:31.325Z,33.90
2018-03-14T02:22:59.388Z,33.43
2018-03-14T02:25:27.421Z,34.23
2018-03-14T02:27:55.472Z,33.93
2018-03-14T02:30:24.278Z,34.17
2018-03-14T02:32:53.094Z,33.53
2018-03-14T02:35:21.127Z,34.33
2018-03-14T02:37:49.182Z,34.23
2018-03-14T02:40:17.233Z,33.33
2018-03-14T02:42:45.276Z,34.30
2018-03-14T02:45:13.329Z,34.37
2018-03-14T02:47:41.400Z,33.90
2018-03-14T02:50:09.436Z,33.70
2018-03-14T02:52:38.985Z,33.37
2018-03-14T02:55:07.804Z,33.97
2018-03-14T02:57:35.848Z,33.87
2018-03-14T03:00:04.028Z,33.97
2018-03-14T03:02:32.080Z,33.70
2018-03-14T03:05:00.120Z,34.50
2018-03-14T03:07:28.941Z,34.57
2018-03-14T03:09:56.980Z,33.77
2018-03-14T03:12:25.021Z,33.97
2018-03-14T03:14:53.069Z,33.97
2018-03-14T03:17:21.892Z,34.57
2018-03-14T03:19:49.945Z,35.40
2018-03-14T03:22:17.996Z,33.97
2018-03-14T03:24:46.044Z,34.97
2018-03-14T03:27:14.856Z,33.80
2018-03-14T03:29:42.897Z,34.77
2018-03-14T03:32:10.957Z,34.50
2018-03-14T03:34:38.999Z,34.27
2018-03-14T03:37:07.821Z,34.37
2018-03-14T03:39:35.860Z,34.97
2018-03-14T03:42:03.925Z,34.60
2018-03-14T03:44:31.965Z,34.37
2018-03-14T03:47:00.050Z,34.03
2018-03-14T03:49:28.093Z,33.43
2018-03-14T03:51:56.216Z,33.70
2018-03-14T03:54:24.305Z,33.83
2018-03-14T03:56:52.356Z,34.60
2018-03-14T03:59:21.165Z,34.43
2018-03-14T04:01:49.990Z,35.90
2018-03-14T04:04:18.077Z,35.33
2018-03-14T04:06:46.130Z,35.27
2018-03-14T04:09:14.156Z,34.43
2018-03-14T04:11:42.225Z,34.90
2018-03-14T04:14:10.270Z,34.70
2018-03-14T04:16:38.308Z,35.73
2018-03-14T04:19:06.364Z,36.07
2018-03-14T04:21:35.184Z,36.60
2018-03-14T04:24:03.998Z,34.83
2018-03-14T04:26:32.033Z,35.40
2018-03-14T04:29:00.889Z,36.57
2018-03-14T04:31:28.926Z,37.57
2018-03-14T04:33:57.736Z,37.57
2018-03-14T04:36:26.552Z,38.17
2018-03-14T04:38:54.620Z,36.87
2018-03-14T04:41:23.428Z,37.17
2018-03-14T04:43:52.242Z,38.43
2018-03-14T04:46:20.290Z,36.93
2018-03-14T04:48:48.337Z,36.00
2018-03-14T04:51:16.389Z,36.43
2018-03-14T04:53:44.429Z,37.43
2018-03-14T04:56:12.485Z,36.30
2018-03-14T04:58:40.537Z,34.27
2018-03-14T05:01:09.357Z,36.33
2018-03-14T05:03:37.405Z,35.23
2018-03-14T05:06:05.458Z,35.00
2018-03-14T05:08:33.538Z,34.97
2018-03-14T05:11:01.577Z,34.17
2018-03-14T05:13:30.396Z,35.67
2018-03-14T05:15:58.438Z,36.07
2018-03-14T05:18:26.488Z,36.53
2018-03-14T05:20:54.680Z,36.83
2018-03-14T05:23:22.748Z,37.87
2018-03-14T05:25:50.788Z,38.90
2018-03-14T05:28:19.594Z,37.13
2018-03-14T05:30:48.400Z,39.73
2018-03-14T05:33:17.212Z,39.90
2018-03-14T05:35:46.026Z,40.40
2018-03-14T05:38:14.061Z,42.33
2018-03-14T05:40:42.123Z,42.40
2018-03-14T05:43:10.157Z,43.47
2018-03-14T05:45:38.963Z,42.17
2018-03-14T05:48:07.772Z,40.73
2018-03-14T05:50:36.009Z,39.70
2018-03-14T05:53:04.061Z,40.60
2018-03-14T05:55:32.093Z,41.33
2018-03-14T05:58:00.149Z,40.57
2018-03-14T06:00:28.206Z,37.87
2018-03-14T06:02:56.262Z,37.73
2018-03-14T06:05:25.103Z,37.93
2018-03-14T06:07:53.888Z,38.47
2018-03-14T06:10:21.929Z,38.17
2018-03-14T06:12:50.109Z,37.80
2018-03-14T06:15:18.157Z,38.07
2018-03-14T06:17:46.212Z,36.77
2018-03-14T06:20:15.035Z,38.03
2018-03-14T06:22:43.069Z,36.83
2018-03-14T06:25:11.131Z,37.47
2018-03-14T06:27:39.186Z,37.53
2018-03-14T06:30:07.227Z,37.57
2018-03-14T06:32:35.260Z,36.77
2018-03-14T06:35:03.302Z,37.73
2018-03-14T06:37:32.121Z,36.90
2018-03-14T06:40:00.924Z,37.80
2018-03-14T06:42:29.752Z,35.67
2018-03-14T06:44:57.790Z,36.13
2018-03-14T06:47:25.844Z,36.47
2018-03-14T06:49:53.898Z,36.93
2018-03-14T06:52:21.941Z,37.07
2018-03-14T06:54:51.496Z,35.80
2018-03-14T06:57:19.538Z,35.93
2018-03-14T07:00:06.785Z,34.27
2018-03-14T07:02:45.712Z,35.60
2018-03-14T07:05:31.542Z,36.13
2018-03-14T07:08:00.351Z,35.63
2018-03-14T07:10:29.174Z,33.17
2018-03-14T07:12:57.212Z,34.40
2018-03-14T07:15:25.265Z,34.83
2018-03-14T07:17:53.368Z,34.43
2018-03-14T07:20:21.424Z,34.17
2018-03-14T07:22:49.465Z,35.03
2018-03-14T07:25:18.284Z,34.43
2018-03-14T07:27:46.325Z,34.07
2018-03-14T07:30:14.381Z,34.50
2018-03-14T07:32:42.444Z,33.17
2018-03-14T07:35:10.486Z,33.30
2018-03-14T07:37:38.540Z,34.40
2018-03-14T07:40:06.582Z,33.80
2018-03-14T07:42:35.398Z,33.13
2018-03-14T07:45:03.440Z,33.73
2018-03-14T07:47:31.506Z,32.23
2018-03-14T07:49:59.550Z,31.40
2018-03-14T07:52:27.588Z,33.07
2018-03-14T07:54:55.641Z,32.80
2018-03-14T07:57:23.681Z,32.93
2018-03-14T07:59:52.505Z,32.90
2018-03-14T08:02:20.557Z,33.40
2018-03-14T08:04:49.366Z,32.80
2018-03-14T08:07:18.185Z,33.30
2018-03-14T08:09:46.225Z,32.77
2018-03-14T08:12:14.290Z,33.97
2018-03-14T08:14:42.324Z,34.07
2018-03-14T08:17:11.129Z,32.90
2018-03-14T08:19:39.948Z,33.97
2018-03-14T08:22:07.985Z,33.07
2018-03-14T08:24:36.052Z,33.37
2018-03-14T08:27:04.091Z,33.53
2018-03-14T08:29:32.129Z,33.33
2018-03-14T08:32:00.185Z,34.27
2018-03-14T08:34:28.336Z,33.83
2018-03-14T08:36:56.276Z,33.90
2018-03-14T08:39:24.316Z,34.50
2018-03-14T08:41:52.431Z,36.30
2018-03-14T08:44:20.469Z,34.83
2018-03-14T08:46:49.335Z,35.10
2018-03-14T08:49:17.320Z,35.03
2018-03-14T08:51:45.385Z,34.53
2018-03-14T08:54:13.435Z,34.83
2018-03-14T08:56:41.478Z,35.17
2018-03-14T08:59:09.529Z,35.60
2018-03-14T09:01:37.569Z,35.37
2018-03-14T09:04:06.392Z,35.60
2018-03-14T09:06:34.429Z,35.47
2018-03-14T09:09:02.481Z,35.40
2018-03-14T09:11:30.537Z,35.33
2018-03-14T09:13:59.336Z,35.60
2018-03-14T09:16:27.407Z,36.20
2018-03-14T09:18:56.207Z,35.43
2018-03-14T09:21:25.041Z,34.90
2018-03-14T09:23:53.892Z,35.43
2018-03-14T09:26:22.714Z,34.73
2018-03-14T09:28:51.537Z,35.47
2018-03-14T09:31:19.589Z,35.27
2018-03-14T09:33:49.479Z,35.10
2018-03-14T09:36:17.521Z,35.57
2018-03-14T09:38:46.332Z,35.00
2018-03-14T09:41:14.376Z,35.57
2018-03-14T09:43:42.467Z,34.00
2018-03-14T09:46:10.501Z,35.20
2018-03-14T09:48:38.592Z,34.37
2018-03-14T09:51:06.685Z,33.40
2018-03-14T09:53:34.729Z,33.43
2018-03-14T09:56:03.550Z,34.77
2018-03-14T09:58:31.612Z,34.77
2018-03-14T10:01:00.412Z,36.23
2018-03-14T10:03:29.227Z,35.60
2018-03-14T10:05:58.052Z,36.60
2018-03-14T10:08:26.093Z,35.63
2018-03-14T10:10:54.132Z,36.57
2018-03-14T10:13:22.184Z,37.03
2018-03-14T10:15:50.232Z,35.20
2018-03-14T10:18:18.284Z,35.57
2018-03-14T10:20:46.333Z,35.83
2018-03-14T10:23:14.394Z,35.53
2018-03-14T10:25:42.555Z,35.47
2018-03-14T10:28:10.509Z,35.80
2018-03-14T10:30:38.547Z,35.80
2018-03-14T10:33:07.369Z,34.80
2018-03-14T10:35:36.177Z,34.80
2018-03-14T10:38:04.244Z,34.97
2018-03-14T10:40:33.048Z,35.20
2018-03-14T10:43:01.880Z,35.53
2018-03-14T10:45:29.922Z,35.57
2018-03-14T10:47:57.992Z,35.43
2018-03-14T10:50:26.804Z,35.63
2018-03-14T10:52:54.877Z,35.03
2018-03-14T10:55:22.941Z,35.10
2018-03-14T10:57:50.985Z,35.33
2018-03-14T11:00:24.741Z,34.70
2018-03-14T11:02:52.803Z,34.27
2018-03-14T11:05:20.856Z,33.83
2018-03-14T11:07:49.700Z,33.80
2018-03-14T11:10:18.501Z,33.70
2018-03-14T11:12:46.557Z,32.87
2018-03-14T11:15:15.385Z,32.93
2018-03-14T11:17:43.447Z,33.00
2018-03-14T11:20:12.273Z,32.53
2018-03-14T11:22:40.317Z,32.93
2018-03-14T11:25:09.157Z,32.50
2018-03-14T11:27:37.241Z,33.57
2018-03-14T11:30:05.281Z,33.27
2018-03-14T11:32:33.349Z,33.93
2018-03-14T11:35:01.402Z,32.90
2018-03-14T11:37:29.473Z,32.60
2018-03-14T11:39:57.520Z,32.53
2018-03-14T11:42:26.399Z,33.57
2018-03-14T11:44:54.403Z,33.53
2018-03-14T11:47:22.450Z,33.07
2018-03-14T11:49:50.511Z,33.53
2018-03-14T11:52:18.561Z,33.37
2018-03-14T11:54:47.394Z,33.63
2018-03-14T11:57:15.469Z,33.30
2018-03-14T11:59:43.505Z,33.53
2018-03-14T12:02:11.557Z,32.83
2018-03-14T12:04:39.638Z,31.27
2018-03-14T12:07:07.681Z,32.57
2018-03-14T12:09:35.729Z,31.93
2018-03-14T12:12:03.801Z,31.00
2018-03-14T12:14:31.854Z,30.33
2018-03-14T12:17:00.676Z,30.67
2018-03-14T12:19:28.725Z,30.37
2018-03-14T12:21:57.557Z,30.70
2018-03-14T12:24:25.607Z,31.87
2018-03-14T12:26:53.655Z,32.73
2018-03-14T12:29:21.702Z,32.80
2018-03-14T12:31:49.809Z,32.70
2018-03-14T12:34:17.844Z,31.67
2018-03-14T12:36:45.907Z,32.07
2018-03-14T12:39:13.976Z,31.40
2018-03-14T12:41:42.040Z,31.43
2018-03-14T12:44:10.102Z,30.90
2018-03-14T12:46:38.928Z,31.53
2018-03-14T12:49:06.993Z,31.53
2018-03-14T12:51:35.040Z,31.87
2018-03-14T12:54:03.133Z,32.03
2018-03-14T12:56:31.141Z,32.33
2018-03-14T12:58:59.209Z,31.83
2018-03-14T13:01:28.021Z,31.73
2018-03-14T13:03:56.853Z,32.20
2018-03-14T13:06:24.908Z,31.87
2018-03-14T13:08:53.793Z,32.10
2018-03-14T13:11:21.824Z,32.40
2018-03-14T13:13:49.888Z,32.40
2018-03-14T13:16:18.713Z,31.93
2018-03-14T13:18:46.760Z,31.97
2018-03-14T13:21:15.593Z,31.60
2018-03-14T13:23:43.644Z,31.40
2018-03-14T13:26:12.467Z,31.43
2018-03-14T13:28:40.518Z,31.27
2018-03-14T13:31:08.592Z,30.70
2018-03-14T13:33:36.632Z,30.70
2018-03-14T13:36:04.680Z,30.20
2018-03-14T13:38:32.736Z,29.90
2018-03-14T13:41:00.800Z,29.83
2018-03-14T13:43:28.861Z,30.27
2018-03-14T13:45:56.905Z,30.00
2018-03-14T13:48:24.960Z,30.23
2018-03-14T13:50:53.019Z,29.67
2018-03-14T13:53:21.068Z,30.37
2018-03-14T13:55:49.116Z,29.97
2018-03-14T13:58:17.206Z,29.87
2018-03-14T14:00:45.217Z,29.53
2018-03-14T14:03:13.298Z,28.77
2018-03-14T14:05:41.408Z,29.30
2018-03-14T14:08:10.216Z,29.67
2018-03-14T14:10:38.555Z,29.73
2018-03-14T14:13:06.881Z,29.77
2018-03-14T14:15:35.704Z,30.40
2018-03-14T14:18:03.744Z,29.47
2018-03-14T14:20:31.801Z,30.30
2018-03-14T14:22:59.873Z,30.20
2018-03-14T14:25:28.019Z,29.87
2018-03-14T14:27:56.082Z,29.97
2018-03-14T14:30:24.157Z,29.90
2018-03-14T14:32:52.201Z,30.73
2018-03-14T14:35:20.245Z,30.57
2018-03-14T14:37:48.317Z,29.93
2018-03-14T14:40:16.386Z,30.40
2018-03-14T14:42:44.428Z,30.67
2018-03-14T14:45:12.493Z,30.27
2018-03-14T14:47:41.316Z,29.53
2018-03-14T14:50:09.388Z,29.90
2018-03-14T14:52:38.224Z,29.27
2018-03-14T14:55:06.270Z,30.30
2018-03-14T14:57:35.101Z,29.73
2018-03-14T15:00:03.161Z,29.20
2018-03-14T15:02:31.977Z,28.83
2018-03-14T15:05:00.049Z,28.70
2018-03-14T15:07:28.861Z,29.53
2018-03-14T15:09:56.915Z,29.00
2018-03-14T15:12:24.977Z,28.70
2018-03-14T15:14:53.045Z,28.80
2018-03-14T15:17:21.084Z,29.50
2018-03-14T15:19:49.921Z,29.00
2018-03-14T15:22:17.994Z,28.63
2018-03-14T15:24:46.045Z,29.03
2018-03-14T15:27:14.118Z,29.40
2018-03-14T15:29:42.275Z,29.10
2018-03-14T15:32:10.261Z,28.80
2018-03-14T15:34:38.301Z,28.97
2018-03-14T15:37:07.140Z,29.60
2018-03-14T15:39:35.189Z,29.67
2018-03-14T15:42:04.017Z,29.10
2018-03-14T15:44:32.090Z,28.73
2018-03-14T15:47:00.133Z,28.70
2018-03-14T15:49:28.205Z,27.93
2018-03-14T15:51:56.245Z,28.40
2018-03-14T15:54:24.323Z,28.60
2018-03-14T15:56:53.128Z,29.53
2018-03-14T15:59:21.177Z,29.37
2018-03-14T16:01:49.241Z,29.20
2018-03-14T16:04:17.284Z,28.70
2018-03-14T16:06:45.383Z,29.00
2018-03-14T16:09:14.192Z,28.50
2018-03-14T16:11:42.236Z,28.50
2018-03-14T16:14:11.054Z,28.53
2018-03-14T16:16:39.120Z,29.00
2018-03-14T16:19:07.167Z,28.30
2018-03-14T16:21:35.225Z,28.17
2018-03-14T16:24:03.273Z,28.63
2018-03-14T16:26:32.105Z,28.40
2018-03-14T16:29:00.147Z,29.77
2018-03-14T16:31:28.990Z,28.53
2018-03-14T16:33:57.052Z,29.17
2018-03-14T16:36:25.129Z,28.87
2018-03-14T16:38:53.941Z,29.60
2018-03-14T16:41:22.020Z,29.67
2018-03-14T16:43:50.848Z,28.90
2018-03-14T16:46:18.896Z,28.93
2018-03-14T16:48:47.740Z,28.63
2018-03-14T16:51:15.796Z,28.33
2018-03-14T16:53:44.596Z,28.50
2018-03-14T16:56:13.429Z,28.23
2018-03-14T16:58:41.516Z,28.90
2018-03-14T17:01:09.574Z,28.53
2018-03-14T17:03:37.641Z,28.70
2018-03-14T17:06:06.448Z,28.70
2018-03-14T17:08:35.281Z,28.17
2018-03-14T17:11:03.341Z,28.57
2018-03-14T17:13:31.388Z,28.03
2018-03-14T17:15:59.432Z,28.10
2018-03-14T17:18:27.465Z,28.10
2018-03-14T17:20:55.524Z,27.47
2018-03-14T17:23:23.569Z,27.33
2018-03-14T17:25:51.666Z,27.53
2018-03-14T17:28:19.690Z,27.63
2018-03-14T17:30:47.731Z,27.90
2018-03-14T17:33:15.793Z,28.00
2018-03-14T17:35:44.613Z,28.33
2018-03-14T17:38:12.656Z,28.00
2018-03-14T17:40:40.712Z,27.80
2018-03-14T17:43:08.783Z,27.13
2018-03-14T17:45:36.804Z,27.50
2018-03-14T17:48:04.864Z,27.83
2018-03-14T17:50:32.912Z,27.20
2018-03-14T17:53:00.944Z,27.50
2018-03-14T17:55:29.005Z,27.47
2018-03-14T17:57:57.040Z,27.50
2018-03-14T18:00:25.885Z,27.40
2018-03-14T18:02:53.924Z,27.30
2018-03-14T18:05:22.731Z,27.00
2018-03-14T18:07:51.552Z,28.73
2018-03-14T18:10:19.592Z,28.77
2018-03-14T18:12:47.652Z,28.17
2018-03-14T18:15:15.716Z,27.47
2018-03-14T18:17:44.497Z,27.73
2018-03-14T18:20:13.339Z,28.40
2018-03-14T18:22:41.384Z,28.27
2018-03-14T18:25:10.194Z,28.00
2018-03-14T18:27:38.292Z,28.60
2018-03-14T18:30:06.588Z,28.57
2018-03-14T18:32:34.648Z,28.07
2018-03-14T18:35:02.691Z,28.67
2018-03-14T18:37:30.742Z,28.60
2018-03-14T18:39:58.791Z,28.50
2018-03-14T18:42:27.592Z,28.57
2018-03-14T18:44:56.413Z,28.67
2018-03-14T18:47:24.453Z,27.97
2018-03-14T18:49:52.504Z,28.13
2018-03-14T18:52:20.557Z,28.30
2018-03-14T18:54:49.365Z,27.67
2018-03-14T18:57:18.190Z,28.10
2018-03-14T18:59:46.403Z,27.77
2018-03-14T19:02:14.397Z,27.63
2018-03-14T19:04:42.465Z,27.83
2018-03-14T19:07:10.488Z,28.27
2018-03-14T19:09:39.293Z,28.57
2018-03-14T19:12:08.120Z,27.80
2018-03-14T19:14:36.158Z,28.23
2018-03-14T19:17:04.214Z,28.67
2018-03-14T19:19:32.350Z,29.07
2018-03-14T19:22:00.357Z,28.33
2018-03-14T19:24:28.408Z,29.13
2018-03-14T19:26:56.456Z,28.43
2018-03-14T19:29:24.492Z,28.80
2018-03-14T19:31:53.321Z,29.30
2018-03-14T19:34:21.361Z,28.90
2018-03-14T19:36:49.421Z,29.90
2018-03-14T19:39:17.456Z,30.07
2018-03-14T19:41:45.515Z,29.33
2018-03-14T19:44:13.578Z,29.60
2018-03-14T19:46:41.604Z,30.13
2018-03-14T19:49:09.649Z,29.97
2018-03-14T19:51:37.704Z,30.93
2018-03-14T19:54:05.750Z,29.93
2018-03-14T19:56:34.564Z,29.77
2018-03-14T19:59:02.652Z,30.00
2018-03-14T20:01:30.686Z,30.37
2018-03-14T20:03:58.733Z,29.17
2018-03-14T20:06:26.785Z,29.80
2018-03-14T20:08:55.644Z,30.27
2018-03-14T20:11:24.413Z,29.83
2018-03-14T20:13:52.453Z,29.77
2018-03-14T20:16:20.496Z,30.17
2018-03-14T20:18:48.568Z,30.30
2018-03-14T20:21:16.612Z,30.27
2018-03-14T20:23:44.656Z,30.83
2018-03-14T20:26:12.726Z,30.77
2018-03-14T20:28:40.761Z,29.80
2018-03-14T20:31:08.805Z,30.70
2018-03-14T20:33:36.852Z,30.20
2018-03-14T20:36:05.656Z,30.90
2018-03-14T20:38:33.713Z,30.17
2018-03-14T20:41:01.768Z,31.73
2018-03-14T20:43:29.812Z,30.60
2018-03-14T20:45:57.905Z,30.27
2018-03-14T20:48:25.941Z,30.30
2018-03-14T20:50:53.996Z,30.43
2018-03-14T20:53:22.064Z,30.80
2018-03-14T20:55:50.140Z,30.73
2018-03-14T20:58:18.177Z,30.77
2018-03-14T21:00:46.237Z,31.17
2018-03-14T21:03:14.281Z,30.87
2018-03-14T21:05:42.339Z,30.50
2018-03-14T21:08:10.411Z,30.63
2018-03-14T21:10:38.451Z,31.63
2018-03-14T21:13:06.530Z,31.43
2018-03-14T21:15:34.576Z,30.93
2018-03-14T21:18:03.404Z,31.07
2018-03-14T21:20:32.200Z,30.90
2018-03-14T21:23:01.023Z,31.13
2018-03-14T21:25:29.068Z,31.50
2018-03-14T21:27:57.190Z,30.53
2018-03-14T21:30:25.236Z,31.33
2018-03-14T21:32:53.276Z,31.90
2018-03-14T21:35:21.317Z,30.70
2018-03-14T21:37:50.136Z,31.83
2018-03-14T21:40:18.180Z,32.03
2018-03-14T21:42:46.226Z,31.93
2018-03-14T21:45:14.281Z,32.67
2018-03-14T21:47:43.081Z,32.73
2018-03-14T21:50:11.900Z,32.73
2018-03-14T21:52:39.944Z,32.90
2018-03-14T21:55:07.993Z,33.17
2018-03-14T21:57:36.033Z,32.53
2018-03-14T22:00:04.853Z,32.13
2018-03-14T22:02:32.896Z,32.80
2018-03-14T22:05:01.034Z,32.57
2018-03-14T22:07:29.073Z,31.83
2018-03-14T22:09:57.113Z,32.53
2018-03-14T22:12:25.153Z,33.47
2018-03-14T22:14:53.997Z,32.80
2018-03-14T22:17:22.037Z,32.20
2018-03-14T22:19:50.856Z,32.57
2018-03-14T22:22:18.899Z,32.60
2018-03-14T22:24:46.932Z,32.97
2018-03-14T22:27:14.990Z,32.73
2018-03-14T22:29:43.792Z,32.50
2018-03-14T22:32:12.612Z,31.47
2018-03-14T22:34:40.657Z,32.43
2018-03-14T22:37:08.755Z,32.97
2018-03-14T22:39:36.746Z,32.30
2018-03-14T22:42:05.549Z,32.70
2018-03-14T22:44:34.373Z,32.77
2018-03-14T22:47:02.465Z,32.27
2018-03-14T22:49:30.474Z,32.07
2018-03-14T22:51:58.504Z,32.27
2018-03-14T22:54:27.326Z,32.37
2018-03-14T22:56:55.363Z,32.60
2018-03-14T22:59:23.421Z,32.53
2018-03-14T23:01:51.460Z,31.50
2018-03-14T23:04:20.276Z,31.93
2018-03-14T23:06:48.337Z,32.30
2018-03-14T23:09:17.144Z,31.70
2018-03-14T23:11:46.068Z,32.10
2018-03-14T23:14:14.124Z,32.23
2018-03-14T23:16:42.959Z,32.20
2018-03-14T23:19:11.764Z,31.57
2018-03-14T23:21:39.815Z,32.07
2018-03-14T23:24:08.667Z,31.97
2018-03-14T23:26:36.701Z,30.80
2018-03-14T23:29:05.632Z,32.20
2018-03-14T23:31:33.688Z,31.90
2018-03-14T23:34:02.512Z,32.03
2018-03-14T23:36:30.557Z,32.33
2018-03-14T23:39:00.116Z,31.40
2018-03-14T23:41:28.162Z,31.83
2018-03-14T23:43:56.229Z,32.47
2018-03-14T23:46:24.269Z,32.20
2018-03-14T23:48:52.313Z,31.60
2018-03-14T23:51:20.384Z,32.13
2018-03-14T23:53:48.436Z,31.67
2018-03-14T23:56:16.464Z,31.97
2018-03-14T23:58:44.525Z,32.50
